createdAt,value
2023-04-16T00:00:25.875Z,375
2023-04-16T00:01:26.867Z,364
2023-04-16T00:02:23.735Z,366
2023-04-16T00:03:23.772Z,360
2023-04-16T00:04:23.890Z,345
2023-04-16T00:05:24.661Z,344
2023-04-16T00:06:23.913Z,356
2023-04-16T00:07:24.018Z,352
2023-04-16T00:08:24.388Z,365
2023-04-16T00:09:23.493Z,352
2023-04-16T00:10:24.159Z,354
2023-04-16T00:11:23.584Z,355
2023-04-16T00:12:23.643Z,348
2023-04-16T00:14:24.069Z,354
2023-04-16T00:15:24.869Z,356
2023-04-16T00:17:28.063Z,361
2023-04-16T00:18:23.283Z,360
2023-04-16T00:19:23.306Z,357
2023-04-16T00:20:24.295Z,354
2023-04-16T00:21:24.374Z,351
2023-04-16T00:22:23.392Z,362
2023-04-16T00:23:23.649Z,368
2023-04-16T00:24:23.883Z,372
2023-04-16T00:25:24.147Z,364
2023-04-16T00:26:23.565Z,363
2023-04-16T00:27:23.992Z,357
2023-04-16T00:28:24.396Z,360
2023-04-16T00:29:23.784Z,356
2023-04-16T00:30:24.381Z,362
2023-04-16T00:31:23.511Z,359
2023-04-16T00:32:23.778Z,365
2023-04-16T00:33:24.447Z,363
2023-04-16T00:35:24.340Z,354
2023-04-16T00:36:23.269Z,353
2023-04-16T00:38:23.269Z,350
2023-04-16T00:39:23.455Z,354
2023-04-16T00:40:23.564Z,352
2023-04-16T00:42:23.833Z,356
2023-04-16T00:43:23.732Z,357
2023-04-16T00:44:23.792Z,368
2023-04-16T00:45:24.526Z,371
2023-04-16T00:46:24.435Z,362
2023-04-16T00:48:24.288Z,360
2023-04-16T00:49:23.938Z,359
2023-04-16T00:50:24.467Z,363
2023-04-16T00:51:23.702Z,369
2023-04-16T00:52:24.096Z,358
2023-04-16T00:55:24.367Z,357
2023-04-16T00:56:23.532Z,364
2023-04-16T00:57:23.834Z,371
2023-04-16T00:58:23.929Z,372
2023-04-16T00:59:24.346Z,376
2023-04-16T01:00:24.911Z,377
2023-04-16T01:01:23.695Z,369
2023-04-16T01:02:23.918Z,362
2023-04-16T01:03:23.661Z,363
2023-04-16T01:04:24.152Z,367
2023-04-16T01:05:24.379Z,370
2023-04-16T01:06:23.930Z,374
2023-04-16T01:08:23.694Z,369
2023-04-16T01:09:23.915Z,360
2023-04-16T01:10:24.128Z,361
2023-04-16T01:12:23.899Z,358
2023-04-16T01:13:24.186Z,352
2023-04-16T01:14:24.079Z,353
2023-04-16T01:16:23.935Z,354
2023-04-16T01:17:24.209Z,359
2023-04-16T01:19:24.059Z,352
2023-04-16T01:20:23.959Z,354
2023-04-16T01:21:24.071Z,348
2023-04-16T01:22:23.998Z,362
2023-04-16T01:24:23.687Z,374
2023-04-16T01:25:23.905Z,369
2023-04-16T01:27:24.012Z,358
2023-04-16T01:28:23.742Z,361
2023-04-16T01:29:23.775Z,360
2023-04-16T01:30:24.254Z,362
2023-04-16T01:31:28.675Z,360
2023-04-16T01:32:24.134Z,368
2023-04-16T01:33:23.779Z,361
2023-04-16T01:34:23.822Z,359
2023-04-16T01:35:23.829Z,363
2023-04-16T01:36:23.999Z,372
2023-04-16T01:37:23.559Z,362
2023-04-16T01:38:24.288Z,371
2023-04-16T01:39:23.282Z,370
2023-04-16T01:40:23.731Z,360
2023-04-16T01:41:23.804Z,362
2023-04-16T01:42:23.521Z,367
2023-04-16T01:44:23.661Z,361
2023-04-16T01:45:24.660Z,365
2023-04-16T01:47:24.189Z,365
2023-04-16T01:48:24.273Z,368
2023-04-16T01:49:23.652Z,367
2023-04-16T01:51:23.880Z,358
2023-04-16T01:52:23.945Z,352
2023-04-16T01:53:23.966Z,359
2023-04-16T01:54:24.231Z,366
2023-04-16T01:55:24.263Z,368
2023-04-16T01:56:24.187Z,365
2023-04-16T01:57:23.792Z,349
2023-04-16T01:58:24.176Z,360
2023-04-16T01:59:23.613Z,367
2023-04-16T02:00:25.317Z,354
2023-04-16T02:01:24.321Z,350
2023-04-16T02:02:23.853Z,347
2023-04-16T02:03:24.013Z,351
2023-04-16T02:04:23.776Z,356
2023-04-16T02:05:24.443Z,363
2023-04-16T02:06:23.728Z,361
2023-04-16T02:07:23.886Z,365
2023-04-16T02:08:24.005Z,367
2023-04-16T02:09:23.518Z,353
2023-04-16T02:10:23.704Z,365
2023-04-16T02:11:23.478Z,360
2023-04-16T02:12:23.375Z,357
2023-04-16T02:14:23.261Z,359
2023-04-16T02:15:23.554Z,363
2023-04-16T02:18:23.426Z,367
2023-04-16T02:20:24.181Z,370
2023-04-16T02:22:26.093Z,363
2023-04-16T02:23:23.658Z,361
2023-04-16T02:24:23.207Z,366
2023-04-16T02:26:23.688Z,360
2023-04-16T02:27:23.386Z,362
2023-04-16T02:28:23.336Z,361
2023-04-16T02:29:23.001Z,369
2023-04-16T02:30:24.326Z,373
2023-04-16T02:31:24.074Z,374
2023-04-16T02:32:23.369Z,370
2023-04-16T02:33:23.699Z,371
2023-04-16T02:34:23.203Z,378
2023-04-16T02:35:23.341Z,371
2023-04-16T02:36:23.155Z,363
2023-04-16T02:37:23.410Z,364
2023-04-16T02:38:23.293Z,368
2023-04-16T02:39:23.522Z,357
2023-04-16T02:40:23.802Z,354
2023-04-16T02:41:23.094Z,352
2023-04-16T02:42:23.752Z,364
2023-04-16T02:43:23.516Z,365
2023-04-16T02:45:23.883Z,369
2023-04-16T02:46:23.488Z,366
2023-04-16T02:47:23.192Z,365
2023-04-16T02:49:23.166Z,370
2023-04-16T02:50:23.516Z,374
2023-04-16T02:51:23.592Z,369
2023-04-16T02:53:23.860Z,357
2023-04-16T02:54:23.637Z,363
2023-04-16T02:55:23.380Z,372
2023-04-16T02:56:23.460Z,378
2023-04-16T02:57:23.205Z,376
2023-04-16T02:58:23.754Z,382
2023-04-16T02:59:23.493Z,367
2023-04-16T03:00:24.712Z,359
2023-04-16T03:01:24.139Z,361
2023-04-16T03:02:23.376Z,365
2023-04-16T03:03:23.623Z,366
2023-04-16T03:04:23.524Z,359
2023-04-16T03:05:23.877Z,362
2023-04-16T03:06:23.889Z,360
2023-04-16T03:07:23.434Z,359
2023-04-16T03:08:23.363Z,354
2023-04-16T03:09:24.160Z,367
2023-04-16T03:10:24.103Z,371
2023-04-16T03:11:23.788Z,368
2023-04-16T03:13:23.275Z,366
2023-04-16T03:15:23.892Z,364
2023-04-16T03:16:23.633Z,371
2023-04-16T03:17:23.528Z,373
2023-04-16T03:18:23.445Z,370
2023-04-16T03:20:23.609Z,370
2023-04-16T03:21:23.645Z,367
2023-04-16T03:23:23.865Z,354
2023-04-16T03:24:23.600Z,357
2023-04-16T03:25:23.831Z,361
2023-04-16T03:26:23.851Z,367
2023-04-16T03:27:23.397Z,362
2023-04-16T03:28:23.347Z,358
2023-04-16T03:29:23.259Z,354
2023-04-16T03:31:23.742Z,358
2023-04-16T03:33:23.711Z,375
2023-04-16T03:34:23.461Z,370
2023-04-16T03:35:23.624Z,355
2023-04-16T03:36:23.994Z,357
2023-04-16T03:37:23.840Z,364
2023-04-16T03:38:23.686Z,371
2023-04-16T03:39:24.203Z,358
2023-04-16T03:41:23.706Z,360
2023-04-16T03:43:23.738Z,365
2023-04-16T03:44:24.043Z,370
2023-04-16T03:46:23.398Z,358
2023-04-16T03:48:23.734Z,373
2023-04-16T03:49:23.560Z,370
2023-04-16T03:50:23.506Z,363
2023-04-16T03:51:23.609Z,370
2023-04-16T03:52:23.271Z,371
2023-04-16T03:53:23.832Z,366
2023-04-16T03:54:28.355Z,359
2023-04-16T03:56:24.125Z,365
2023-04-16T03:57:23.836Z,369
2023-04-16T03:58:23.649Z,356
2023-04-16T03:59:23.427Z,370
2023-04-16T04:01:23.369Z,360
2023-04-16T04:02:24.005Z,364
2023-04-16T04:03:24.367Z,360
2023-04-16T04:04:24.133Z,358
2023-04-16T04:05:23.590Z,364
2023-04-16T04:06:23.275Z,359
2023-04-16T04:07:23.801Z,350
2023-04-16T04:09:23.150Z,364
2023-04-16T04:11:23.523Z,363
2023-04-16T04:12:23.236Z,364
2023-04-16T04:14:37.631Z,366
2023-04-16T04:15:23.709Z,369
2023-04-16T04:16:23.251Z,368
2023-04-16T04:17:23.566Z,366
2023-04-16T04:18:23.381Z,368
2023-04-16T04:20:38.185Z,377
2023-04-16T04:21:23.291Z,369
2023-04-16T04:22:23.876Z,358
2023-04-16T04:23:23.511Z,356
2023-04-16T04:24:23.605Z,362
2023-04-16T04:25:24.008Z,366
2023-04-16T04:26:23.728Z,373
2023-04-16T04:27:23.288Z,365
2023-04-16T04:28:23.212Z,367
2023-04-16T04:29:23.398Z,368
2023-04-16T04:31:23.623Z,363
2023-04-16T04:32:23.696Z,360
2023-04-16T04:33:23.450Z,369
2023-04-16T04:34:23.345Z,366
2023-04-16T04:35:23.204Z,363
2023-04-16T04:36:24.090Z,357
2023-04-16T04:37:23.674Z,356
2023-04-16T04:39:23.345Z,363
2023-04-16T04:40:23.517Z,361
2023-04-16T04:41:23.322Z,360
2023-04-16T04:42:23.380Z,358
2023-04-16T04:43:23.389Z,364
2023-04-16T04:44:23.383Z,360
2023-04-16T04:45:24.031Z,351
2023-04-16T04:46:23.978Z,358
2023-04-16T04:47:23.881Z,364
2023-04-16T04:48:23.698Z,358
2023-04-16T04:49:23.705Z,360
2023-04-16T04:50:23.638Z,365
2023-04-16T04:51:23.194Z,364
2023-04-16T04:53:23.023Z,354
2023-04-16T04:55:23.563Z,374
2023-04-16T04:57:23.300Z,372
2023-04-16T04:58:23.144Z,366
2023-04-16T04:59:23.246Z,368
2023-04-16T05:01:23.385Z,372
2023-04-16T05:02:23.371Z,375
2023-04-16T05:03:23.946Z,381
2023-04-16T05:04:23.645Z,373
2023-04-16T05:05:23.814Z,371
2023-04-16T05:06:23.604Z,366
2023-04-16T05:07:23.568Z,363
2023-04-16T05:08:23.499Z,360
2023-04-16T05:09:23.455Z,358
2023-04-16T05:10:23.253Z,361
2023-04-16T05:11:23.544Z,368
2023-04-16T05:13:24.000Z,369
2023-04-16T05:14:23.703Z,376
2023-04-16T05:15:23.667Z,378
2023-04-16T05:16:23.540Z,377
2023-04-16T05:17:23.543Z,367
2023-04-16T05:18:23.805Z,365
2023-04-16T05:19:23.443Z,366
2023-04-16T05:20:23.815Z,370
2023-04-16T05:21:23.115Z,361
2023-04-16T05:22:23.456Z,358
2023-04-16T05:23:23.554Z,369
2023-04-16T05:24:23.244Z,370
2023-04-16T05:25:23.414Z,361
2023-04-16T05:26:23.410Z,375
2023-04-16T05:28:23.901Z,367
2023-04-16T05:30:24.013Z,371
2023-04-16T05:31:24.084Z,368
2023-04-16T05:32:23.731Z,365
2023-04-16T05:33:23.608Z,363
2023-04-16T05:34:23.632Z,367
2023-04-16T05:35:23.660Z,381
2023-04-16T05:36:23.831Z,374
2023-04-16T05:37:23.684Z,373
2023-04-16T05:39:23.869Z,370
2023-04-16T05:40:23.637Z,375
2023-04-16T05:41:23.624Z,371
2023-04-16T05:42:23.494Z,370
2023-04-16T05:43:23.469Z,381
2023-04-16T05:44:23.624Z,378
2023-04-16T05:45:24.730Z,366
2023-04-16T05:46:23.670Z,372
2023-04-16T05:47:23.684Z,393
2023-04-16T05:48:24.139Z,386
2023-04-16T05:50:24.000Z,377
2023-04-16T05:51:23.922Z,373
2023-04-16T05:52:23.618Z,366
2023-04-16T05:53:23.732Z,365
2023-04-16T05:54:23.895Z,370
2023-04-16T05:55:23.782Z,372
2023-04-16T05:56:23.693Z,375
2023-04-16T05:58:24.070Z,372
2023-04-16T05:59:23.703Z,368
2023-04-16T06:00:24.844Z,376
2023-04-16T06:01:23.856Z,379
2023-04-16T06:02:23.979Z,380
2023-04-16T06:03:23.600Z,376
2023-04-16T06:05:24.357Z,374
2023-04-16T06:06:23.348Z,375
2023-04-16T06:07:23.526Z,373
2023-04-16T06:09:24.251Z,379
2023-04-16T06:10:24.218Z,373
2023-04-16T06:11:23.304Z,357
2023-04-16T06:12:23.322Z,360
2023-04-16T06:14:23.774Z,349
2023-04-16T06:15:23.593Z,359
2023-04-16T06:16:23.846Z,372
2023-04-16T06:17:28.611Z,370
2023-04-16T06:19:23.602Z,362
2023-04-16T06:20:23.868Z,366
2023-04-16T06:21:28.818Z,372
2023-04-16T06:22:23.751Z,378
2023-04-16T06:23:23.805Z,369
2023-04-16T06:24:23.832Z,374
2023-04-16T06:25:23.779Z,372
2023-04-16T06:26:23.861Z,370
2023-04-16T06:27:24.383Z,368
2023-04-16T06:28:23.862Z,370
2023-04-16T06:29:28.020Z,369
2023-04-16T06:31:23.330Z,379
2023-04-16T06:32:23.860Z,376
2023-04-16T06:33:23.602Z,375
2023-04-16T06:34:23.583Z,370
2023-04-16T06:36:23.977Z,361
2023-04-16T06:37:23.993Z,373
2023-04-16T06:39:24.104Z,370
2023-04-16T06:40:24.127Z,359
2023-04-16T06:41:24.197Z,366
2023-04-16T06:44:23.595Z,355
2023-04-16T06:45:24.421Z,348
2023-04-16T06:46:23.648Z,358
2023-04-16T06:47:24.324Z,363
2023-04-16T06:48:23.671Z,357
2023-04-16T06:49:24.052Z,364
2023-04-16T06:50:23.985Z,362
2023-04-16T06:51:42.571Z,364
2023-04-16T06:52:23.430Z,377
2023-04-16T06:53:23.944Z,371
2023-04-16T06:54:24.349Z,370
2023-04-16T06:55:23.742Z,362
2023-04-16T06:56:23.578Z,361
2023-04-16T06:57:23.890Z,364
2023-04-16T06:59:23.491Z,368
2023-04-16T07:01:23.885Z,367
2023-04-16T07:02:23.994Z,375
2023-04-16T07:03:23.247Z,366
2023-04-16T07:04:23.566Z,364
2023-04-16T07:05:24.018Z,363
2023-04-16T07:06:23.575Z,380
2023-04-16T07:07:23.564Z,374
2023-04-16T07:08:23.223Z,376
2023-04-16T07:10:23.652Z,362
2023-04-16T07:11:24.237Z,370
2023-04-16T07:12:23.986Z,368
2023-04-16T07:13:23.795Z,367
2023-04-16T07:14:23.601Z,363
2023-04-16T07:17:23.966Z,366
2023-04-16T07:18:24.003Z,369
2023-04-16T07:20:27.169Z,369
2023-04-16T07:21:23.337Z,364
2023-04-16T07:22:24.145Z,362
2023-04-16T07:23:23.246Z,376
2023-04-16T07:24:23.257Z,381
2023-04-16T07:25:23.778Z,366
2023-04-16T07:26:23.778Z,369
2023-04-16T07:27:23.893Z,363
2023-04-16T07:28:23.681Z,367
2023-04-16T07:29:23.383Z,373
2023-04-16T07:30:23.750Z,366
2023-04-16T07:32:23.814Z,366
2023-04-16T07:33:23.978Z,361
2023-04-16T07:34:23.908Z,360
2023-04-16T07:35:23.982Z,374
2023-04-16T07:36:23.542Z,385
2023-04-16T07:37:23.125Z,378
2023-04-16T07:38:24.057Z,372
2023-04-16T07:39:23.192Z,363
2023-04-16T07:40:23.470Z,369
2023-04-16T07:41:23.901Z,371
2023-04-16T07:42:23.703Z,374
2023-04-16T07:43:23.836Z,370
2023-04-16T07:44:22.985Z,375
2023-04-16T07:45:24.713Z,373
2023-04-16T07:46:25.031Z,369
2023-04-16T07:47:23.830Z,360
2023-04-16T07:48:23.730Z,363
2023-04-16T07:49:23.853Z,372
2023-04-16T07:51:24.073Z,374
2023-04-16T07:52:23.978Z,376
2023-04-16T07:54:23.654Z,371
2023-04-16T07:56:23.259Z,357
2023-04-16T07:57:23.708Z,364
2023-04-16T07:58:23.632Z,370
2023-04-16T07:59:24.549Z,371
2023-04-16T08:00:24.794Z,366
2023-04-16T08:03:24.361Z,378
2023-04-16T08:04:24.294Z,383
2023-04-16T08:05:24.138Z,386
2023-04-16T08:06:23.255Z,380
2023-04-16T08:07:23.177Z,376
2023-04-16T08:08:24.095Z,378
2023-04-16T08:09:23.958Z,377
2023-04-16T08:10:24.304Z,366
2023-04-16T08:11:23.975Z,375
2023-04-16T08:12:23.967Z,388
2023-04-16T08:13:23.915Z,374
2023-04-16T08:14:23.881Z,367
2023-04-16T08:15:24.133Z,364
2023-04-16T08:16:23.978Z,362
2023-04-16T08:17:23.956Z,369
2023-04-16T08:18:23.893Z,375
2023-04-16T08:19:23.968Z,376
2023-04-16T08:20:24.107Z,371
2023-04-16T08:21:23.829Z,365
2023-04-16T08:22:23.710Z,369
2023-04-16T08:23:23.631Z,366
2023-04-16T08:25:23.852Z,363
2023-04-16T08:26:23.761Z,367
2023-04-16T08:27:23.886Z,362
2023-04-16T08:28:24.120Z,365
2023-04-16T08:29:23.702Z,371
2023-04-16T08:30:23.903Z,367
2023-04-16T08:32:23.668Z,356
2023-04-16T08:33:23.736Z,361
2023-04-16T08:34:23.554Z,380
2023-04-16T08:35:23.738Z,376
2023-04-16T08:36:23.636Z,380
2023-04-16T08:37:23.579Z,374
2023-04-16T08:38:23.760Z,373
2023-04-16T08:39:24.201Z,364
2023-04-16T08:40:24.230Z,359
2023-04-16T08:41:23.376Z,366
2023-04-16T08:42:23.956Z,375
2023-04-16T08:44:24.097Z,371
2023-04-16T08:45:24.083Z,372
2023-04-16T08:46:29.234Z,369
2023-04-16T08:47:23.750Z,362
2023-04-16T08:48:23.864Z,356
2023-04-16T08:49:23.644Z,358
2023-04-16T08:50:24.030Z,359
2023-04-16T08:51:23.979Z,361
2023-04-16T08:52:23.362Z,368
2023-04-16T08:53:23.650Z,372
2023-04-16T08:54:23.989Z,376
2023-04-16T08:56:32.223Z,373
2023-04-16T08:57:23.762Z,362
2023-04-16T08:58:23.858Z,365
2023-04-16T08:59:23.982Z,376
2023-04-16T09:00:24.417Z,371
2023-04-16T09:01:23.958Z,376
2023-04-16T09:02:24.090Z,369
2023-04-16T09:03:23.761Z,364
2023-04-16T09:04:24.102Z,371
2023-04-16T09:05:23.857Z,368
2023-04-16T09:06:23.770Z,370
2023-04-16T09:07:23.664Z,369
2023-04-16T09:08:23.776Z,363
2023-04-16T09:09:24.015Z,365
2023-04-16T09:10:23.827Z,369
2023-04-16T09:11:23.706Z,362
2023-04-16T09:12:23.670Z,361
2023-04-16T09:13:23.915Z,368
2023-04-16T09:14:37.655Z,361
2023-04-16T09:15:23.674Z,365
2023-04-16T09:16:23.571Z,368
2023-04-16T09:17:23.685Z,357
2023-04-16T09:19:23.849Z,365
2023-04-16T09:20:24.181Z,367
2023-04-16T09:21:24.002Z,379
2023-04-16T09:22:23.769Z,380
2023-04-16T09:23:23.625Z,375
2023-04-16T09:25:24.110Z,368
2023-04-16T09:26:23.989Z,363
2023-04-16T09:27:26.019Z,362
2023-04-16T09:28:23.270Z,368
2023-04-16T09:30:23.955Z,374
2023-04-16T09:31:24.018Z,379
2023-04-16T09:32:23.811Z,377
2023-04-16T09:33:23.921Z,372
2023-04-16T09:34:23.855Z,364
2023-04-16T09:35:23.946Z,369
2023-04-16T09:36:24.304Z,376
2023-04-16T09:37:23.982Z,369
2023-04-16T09:38:24.158Z,363
2023-04-16T09:39:23.957Z,360
2023-04-16T09:40:23.852Z,367
2023-04-16T09:41:23.758Z,362
2023-04-16T09:42:23.853Z,357
2023-04-16T09:43:23.830Z,365
2023-04-16T09:44:23.797Z,372
2023-04-16T09:45:24.535Z,368
2023-04-16T09:46:23.579Z,371
2023-04-16T09:47:24.161Z,368
2023-04-16T09:48:24.067Z,362
2023-04-16T09:49:23.920Z,353
2023-04-16T09:50:24.335Z,357
2023-04-16T09:51:23.615Z,360
2023-04-16T09:52:23.831Z,367
2023-04-16T09:53:24.159Z,356
2023-04-16T09:54:23.754Z,358
2023-04-16T09:55:24.391Z,361
2023-04-16T09:56:23.368Z,357
2023-04-16T09:57:23.330Z,353
2023-04-16T09:58:23.544Z,360
2023-04-16T09:59:23.812Z,368
2023-04-16T10:01:27.879Z,375
2023-04-16T10:02:24.293Z,366
2023-04-16T10:03:23.729Z,371
2023-04-16T10:04:24.248Z,367
2023-04-16T10:05:24.319Z,372
2023-04-16T10:06:23.816Z,365
2023-04-16T10:07:23.687Z,370
2023-04-16T10:08:23.879Z,378
2023-04-16T10:09:24.092Z,379
2023-04-16T10:10:23.820Z,368
2023-04-16T10:11:24.196Z,371
2023-04-16T10:12:24.082Z,366
2023-04-16T10:13:24.055Z,353
2023-04-16T10:14:24.007Z,365
2023-04-16T10:16:23.789Z,361
2023-04-16T10:17:23.595Z,360
2023-04-16T10:18:23.984Z,361
2023-04-16T10:19:24.524Z,367
2023-04-16T10:20:23.752Z,370
2023-04-16T10:21:24.335Z,364
2023-04-16T10:22:23.311Z,367
2023-04-16T10:24:23.580Z,360
2023-04-16T10:25:24.032Z,363
2023-04-16T10:26:23.573Z,364
2023-04-16T10:27:24.079Z,362
2023-04-16T10:28:24.046Z,365
2023-04-16T10:29:23.958Z,382
2023-04-16T10:30:23.622Z,377
2023-04-16T10:31:23.604Z,369
2023-04-16T10:32:23.973Z,357
2023-04-16T10:33:24.099Z,356
2023-04-16T10:34:24.012Z,354
2023-04-16T10:35:23.441Z,358
2023-04-16T10:36:23.897Z,362
2023-04-16T10:38:24.086Z,358
2023-04-16T10:39:23.555Z,370
2023-04-16T10:40:23.932Z,366
2023-04-16T10:41:24.087Z,364
2023-04-16T10:42:24.190Z,354
2023-04-16T10:43:23.542Z,370
2023-04-16T10:44:23.546Z,379
2023-04-16T10:45:23.829Z,378
2023-04-16T10:46:23.964Z,371
2023-04-16T10:47:24.274Z,367
2023-04-16T10:48:23.569Z,364
2023-04-16T10:49:23.685Z,357
2023-04-16T10:50:24.082Z,378
2023-04-16T10:51:23.214Z,372
2023-04-16T10:53:23.598Z,363
2023-04-16T10:54:23.588Z,357
2023-04-16T10:55:24.065Z,368
2023-04-16T10:56:24.070Z,369
2023-04-16T10:57:24.135Z,370
2023-04-16T10:59:26.954Z,372
2023-04-16T11:00:25.224Z,367
2023-04-16T11:01:23.701Z,369
2023-04-16T11:02:25.267Z,372
2023-04-16T11:03:23.735Z,378
2023-04-16T11:04:24.438Z,371
2023-04-16T11:05:23.830Z,363
2023-04-16T11:08:24.731Z,369
2023-04-16T11:09:29.131Z,367
2023-04-16T11:10:23.699Z,366
2023-04-16T11:11:23.825Z,360
2023-04-16T11:12:23.904Z,365
2023-04-16T11:13:23.701Z,372
2023-04-16T11:14:23.786Z,364
2023-04-16T11:15:29.106Z,351
2023-04-16T11:16:23.456Z,357
2023-04-16T11:17:23.634Z,359
2023-04-16T11:18:23.816Z,362
2023-04-16T11:19:23.901Z,353
2023-04-16T11:20:24.722Z,359
2023-04-16T11:21:23.526Z,374
2023-04-16T11:22:23.771Z,360
2023-04-16T11:23:31.646Z,354
2023-04-16T11:24:25.630Z,363
2023-04-16T11:25:23.608Z,357
2023-04-16T11:26:24.301Z,362
2023-04-16T11:27:23.737Z,361
2023-04-16T11:28:24.370Z,357
2023-04-16T11:29:23.767Z,360
2023-04-16T11:30:24.295Z,372
2023-04-16T11:31:23.741Z,377
2023-04-16T11:32:23.759Z,372
2023-04-16T11:33:23.576Z,368
2023-04-16T11:35:24.055Z,369
2023-04-16T11:36:26.231Z,363
2023-04-16T11:37:37.794Z,362
2023-04-16T11:38:23.727Z,367
2023-04-16T11:39:23.607Z,368
2023-04-16T11:40:23.765Z,370
2023-04-16T11:41:23.768Z,383
2023-04-16T11:42:23.644Z,379
2023-04-16T11:43:23.627Z,363
2023-04-16T11:44:24.028Z,370
2023-04-16T11:45:24.679Z,379
2023-04-16T11:46:27.290Z,380
2023-04-16T11:47:24.116Z,382
2023-04-16T11:48:24.183Z,366
2023-04-16T11:49:23.437Z,367
2023-04-16T11:50:23.719Z,358
2023-04-16T11:51:24.195Z,361
2023-04-16T11:52:24.341Z,363
2023-04-16T11:53:23.415Z,356
2023-04-16T11:54:23.743Z,351
2023-04-16T11:55:23.896Z,350
2023-04-16T11:56:23.899Z,352
2023-04-16T11:57:23.232Z,346
2023-04-16T11:58:23.615Z,351
2023-04-16T11:59:23.746Z,355
2023-04-16T12:00:25.392Z,362
2023-04-16T12:01:23.325Z,361
2023-04-16T12:02:23.618Z,359
2023-04-16T12:03:23.603Z,354
2023-04-16T12:04:23.428Z,357
2023-04-16T12:05:23.833Z,356
2023-04-16T12:06:24.477Z,346
2023-04-16T12:07:23.382Z,347
2023-04-16T12:08:23.696Z,360
2023-04-16T12:09:23.752Z,362
2023-04-16T12:10:24.585Z,364
2023-04-16T12:11:23.323Z,371
2023-04-16T12:12:23.438Z,359
2023-04-16T12:13:23.508Z,352
2023-04-16T12:14:23.322Z,360
2023-04-16T12:16:23.786Z,366
2023-04-16T12:17:24.229Z,358
2023-04-16T12:18:23.292Z,355
2023-04-16T12:19:23.521Z,358
2023-04-16T12:20:24.263Z,365
2023-04-16T12:21:23.466Z,369
2023-04-16T12:22:23.166Z,365
2023-04-16T12:23:23.563Z,366
2023-04-16T12:24:24.050Z,363
2023-04-16T12:25:24.161Z,365
2023-04-16T12:26:23.335Z,366
2023-04-16T12:27:23.519Z,358
2023-04-16T12:28:23.705Z,349
2023-04-16T12:29:24.086Z,353
2023-04-16T12:30:23.389Z,365
2023-04-16T12:31:23.572Z,354
2023-04-16T12:32:23.747Z,360
2023-04-16T12:33:23.238Z,363
2023-04-16T12:34:28.845Z,373
2023-04-16T12:35:26.073Z,363
2023-04-16T12:36:23.947Z,354
2023-04-16T12:37:23.860Z,352
2023-04-16T12:38:24.751Z,351
2023-04-16T12:39:23.761Z,362
2023-04-16T12:40:24.478Z,351
2023-04-16T12:42:23.671Z,350
2023-04-16T12:43:23.468Z,345
2023-04-16T12:44:23.464Z,351
2023-04-16T12:45:23.608Z,350
2023-04-16T12:46:24.498Z,351
2023-04-16T12:48:23.229Z,360
2023-04-16T12:49:23.563Z,357
2023-04-16T12:50:24.730Z,358
2023-04-16T12:51:45.766Z,354
2023-04-16T12:52:23.946Z,350
2023-04-16T12:53:23.765Z,368
2023-04-16T12:54:23.816Z,350
2023-04-16T12:55:23.870Z,355
2023-04-16T12:56:23.683Z,358
2023-04-16T12:57:23.994Z,360
2023-04-16T12:58:23.763Z,367
2023-04-16T12:59:23.683Z,360
2023-04-16T13:00:25.206Z,357
2023-04-16T13:01:23.939Z,355
2023-04-16T13:03:24.315Z,356
2023-04-16T13:04:25.615Z,363
2023-04-16T13:05:23.702Z,352
2023-04-16T13:06:23.969Z,346
2023-04-16T13:07:24.325Z,345
2023-04-16T13:08:23.337Z,359
2023-04-16T13:09:23.619Z,358
2023-04-16T13:10:23.921Z,357
2023-04-16T13:11:23.586Z,356
2023-04-16T13:12:23.883Z,357
2023-04-16T13:13:24.069Z,364
2023-04-16T13:14:24.254Z,361
2023-04-16T13:16:24.054Z,348
2023-04-16T13:17:23.344Z,358
2023-04-16T13:18:23.598Z,362
2023-04-16T13:19:23.777Z,359
2023-04-16T13:20:24.718Z,354
2023-04-16T13:21:23.881Z,357
2023-04-16T13:22:23.570Z,368
2023-04-16T13:23:23.542Z,362
2023-04-16T13:24:23.741Z,359
2023-04-16T13:25:23.959Z,351
2023-04-16T13:26:23.743Z,352
2023-04-16T13:27:23.844Z,342
2023-04-16T13:28:24.592Z,343
2023-04-16T13:29:24.518Z,350
2023-04-16T13:30:25.072Z,358
2023-04-16T13:31:23.853Z,355
2023-04-16T13:32:23.700Z,356
2023-04-16T13:33:23.823Z,358
2023-04-16T13:34:28.483Z,353
2023-04-16T13:35:24.011Z,344
2023-04-16T13:36:25.072Z,346
2023-04-16T13:37:23.281Z,354
2023-04-16T13:38:23.733Z,363
2023-04-16T13:39:23.966Z,358
2023-04-16T13:40:23.545Z,360
2023-04-16T13:41:23.613Z,352
2023-04-16T13:42:23.603Z,349
2023-04-16T13:43:23.780Z,354
2023-04-16T13:44:24.229Z,358
2023-04-16T13:45:24.178Z,352
2023-04-16T13:46:23.933Z,345
2023-04-16T13:47:24.138Z,350
2023-04-16T13:48:23.468Z,354
2023-04-16T13:49:23.918Z,361
2023-04-16T13:50:32.340Z,363
2023-04-16T13:51:23.465Z,355
2023-04-16T13:52:23.781Z,356
2023-04-16T13:53:23.956Z,354
2023-04-16T13:54:23.981Z,353
2023-04-16T13:55:23.452Z,359
2023-04-16T13:56:23.968Z,360
2023-04-16T13:57:23.710Z,359
2023-04-16T13:58:24.104Z,365
2023-04-16T13:59:23.560Z,364
2023-04-16T14:00:24.793Z,361
2023-04-16T14:01:23.655Z,354
2023-04-16T14:02:24.070Z,356
2023-04-16T14:03:23.751Z,353
2023-04-16T14:04:23.948Z,354
2023-04-16T14:05:27.032Z,355
2023-04-16T14:06:23.516Z,360
2023-04-16T14:07:23.687Z,355
2023-04-16T14:08:43.280Z,347
2023-04-16T14:10:23.982Z,348
2023-04-16T14:11:24.082Z,349
2023-04-16T14:12:23.786Z,360
2023-04-16T14:13:23.485Z,349
2023-04-16T14:14:23.530Z,353
2023-04-16T14:15:24.151Z,355
2023-04-16T14:16:24.159Z,363
2023-04-16T14:17:23.669Z,356
2023-04-16T14:18:24.188Z,352
2023-04-16T14:19:23.378Z,358
2023-04-16T14:20:23.684Z,363
2023-04-16T14:21:24.135Z,355
2023-04-16T14:22:23.693Z,349
2023-04-16T14:23:23.859Z,341
2023-04-16T14:24:45.849Z,348
2023-04-16T14:25:23.361Z,352
2023-04-16T14:26:23.603Z,357
2023-04-16T14:27:23.919Z,347
2023-04-16T14:28:23.793Z,348
2023-04-16T14:29:24.483Z,345
2023-04-16T14:30:24.533Z,350
2023-04-16T14:31:23.910Z,358
2023-04-16T14:32:24.180Z,364
2023-04-16T14:33:23.850Z,363
2023-04-16T14:34:24.092Z,366
2023-04-16T14:35:23.842Z,361
2023-04-16T14:36:23.805Z,355
2023-04-16T14:38:24.228Z,358
2023-04-16T14:39:23.571Z,359
2023-04-16T14:40:24.442Z,353
2023-04-16T14:41:23.986Z,351
2023-04-16T14:42:24.122Z,348
2023-04-16T14:43:23.333Z,352
2023-04-16T14:44:23.360Z,349
2023-04-16T14:45:24.038Z,346
2023-04-16T14:46:23.955Z,347
2023-04-16T14:47:23.646Z,355
2023-04-16T14:48:24.177Z,354
2023-04-16T14:49:23.982Z,355
2023-04-16T14:50:24.369Z,361
2023-04-16T14:51:23.721Z,356
2023-04-16T14:52:23.823Z,353
2023-04-16T14:53:24.734Z,348
2023-04-16T14:54:25.181Z,339
2023-04-16T14:55:24.832Z,346
2023-04-16T14:56:23.405Z,358
2023-04-16T14:57:23.488Z,361
2023-04-16T14:58:23.587Z,357
2023-04-16T14:59:23.692Z,353
2023-04-16T15:00:24.786Z,352
2023-04-16T15:01:24.323Z,355
2023-04-16T15:02:24.144Z,352
2023-04-16T15:03:23.973Z,353
2023-04-16T15:04:23.670Z,362
2023-04-16T15:05:23.832Z,363
2023-04-16T15:06:24.023Z,356
2023-04-16T15:07:24.007Z,351
2023-04-16T15:08:24.266Z,344
2023-04-16T15:09:23.705Z,354
2023-04-16T15:11:23.567Z,363
2023-04-16T15:12:23.941Z,355
2023-04-16T15:13:23.852Z,350
2023-04-16T15:14:23.792Z,346
2023-04-16T15:15:24.473Z,350
2023-04-16T15:16:23.659Z,349
2023-04-16T15:17:24.267Z,356
2023-04-16T15:19:23.429Z,361
2023-04-16T15:20:23.901Z,353
2023-04-16T15:21:23.689Z,345
2023-04-16T15:22:24.571Z,350
2023-04-16T15:23:24.220Z,352
2023-04-16T15:24:23.796Z,349
2023-04-16T15:25:24.471Z,345
2023-04-16T15:26:23.588Z,336